createdAt,value
2022-08-16T00:01:02.085Z,42.04
2022-08-16T00:03:37.734Z,41.94
2022-08-16T00:06:06.209Z,42.06
2022-08-16T00:08:37.319Z,41.87
2022-08-16T00:11:15.593Z,41.90
2022-08-16T00:13:53.699Z,42.02
2022-08-16T00:17:01.302Z,42.04
2022-08-16T00:19:41.689Z,41.92
2022-08-16T00:22:13.743Z,42.30
2022-08-16T00:24:46.764Z,42.25
2022-08-16T00:27:17.390Z,42.31
2022-08-16T00:29:47.099Z,42.57
2022-08-16T00:32:18.110Z,42.31
2022-08-16T00:34:52.477Z,42.38
2022-08-16T00:37:57.200Z,42.64
2022-08-16T00:40:33.446Z,42.57
2022-08-16T00:43:19.119Z,42.84
2022-08-16T00:46:32.975Z,42.41
2022-08-16T00:49:17.298Z,42.66
2022-08-16T00:51:54.836Z,42.78
2022-08-16T00:54:27.891Z,42.69
2022-08-16T00:57:00.154Z,43.04
2022-08-16T00:59:35.625Z,42.77
2022-08-16T01:02:30.896Z,42.98
2022-08-16T01:05:10.402Z,43.25
2022-08-16T01:07:51.193Z,43.20
2022-08-16T01:10:31.564Z,43.21
2022-08-16T01:13:21.388Z,43.23
2022-08-16T01:16:11.307Z,43.21
2022-08-16T01:18:59.613Z,43.42
2022-08-16T01:21:39.896Z,43.38
2022-08-16T01:24:51.835Z,43.73
2022-08-16T01:27:19.934Z,43.72
2022-08-16T01:30:19.685Z,43.58
2022-08-16T01:33:02.137Z,43.80
2022-08-16T01:35:53.399Z,43.76
2022-08-16T01:38:28.247Z,43.77
2022-08-16T01:41:08.731Z,44.07
2022-08-16T01:43:45.670Z,44.10
2022-08-16T01:46:39.338Z,44.09
2022-08-16T01:49:45.776Z,43.92
2022-08-16T01:52:30.204Z,43.96
2022-08-16T01:55:20.957Z,44.25
2022-08-16T01:57:53.573Z,44.29
2022-08-16T02:00:29.218Z,44.45
2022-08-16T02:03:00.053Z,44.35
2022-08-16T02:05:30.751Z,44.36
2022-08-16T02:08:03.509Z,44.38
2022-08-16T02:10:34.132Z,44.41
2022-08-16T02:13:08.544Z,44.55
2022-08-16T02:15:43.816Z,44.80
2022-08-16T02:18:18.601Z,44.99
2022-08-16T02:20:53.522Z,44.72
2022-08-16T02:23:24.214Z,45.30
2022-08-16T02:25:54.693Z,44.91
2022-08-16T02:28:28.008Z,45.01
2022-08-16T02:31:06.576Z,45.06
2022-08-16T02:33:43.852Z,45.75
2022-08-16T02:36:47.449Z,45.76
2022-08-16T02:39:23.134Z,45.85
2022-08-16T02:41:55.714Z,45.94
2022-08-16T02:44:27.064Z,46.04
2022-08-16T02:46:59.745Z,45.75
2022-08-16T02:49:58.533Z,45.92
2022-08-16T02:52:29.488Z,45.91
2022-08-16T02:55:07.165Z,45.83
2022-08-16T02:57:37.447Z,46.21
2022-08-16T03:00:33.838Z,45.96
2022-08-16T03:03:03.417Z,46.21
2022-08-16T03:05:32.719Z,46.22
2022-08-16T03:08:03.090Z,46.00
2022-08-16T03:10:37.001Z,46.15
2022-08-16T03:13:12.384Z,45.97
2022-08-16T03:15:46.673Z,46.19
2022-08-16T03:18:19.092Z,46.10
2022-08-16T03:21:04.017Z,46.20
2022-08-16T03:23:37.119Z,46.17
2022-08-16T03:26:06.234Z,46.23
2022-08-16T03:28:34.679Z,46.48
2022-08-16T03:31:05.337Z,46.55
2022-08-16T03:33:35.378Z,46.33
2022-08-16T03:36:30.918Z,46.62
2022-08-16T03:38:58.751Z,46.60
2022-08-16T03:41:29.450Z,46.69
2022-08-16T03:44:43.635Z,46.76
2022-08-16T03:47:04.835Z,46.86
2022-08-16T03:49:38.520Z,46.92
2022-08-16T03:52:08.273Z,47.27
2022-08-16T03:54:39.205Z,47.13
2022-08-16T03:57:22.571Z,47.42
2022-08-16T03:59:51.081Z,47.51
2022-08-16T04:02:22.382Z,47.58
2022-08-16T04:04:53.919Z,47.54
2022-08-16T04:07:24.729Z,47.36
2022-08-16T04:09:54.141Z,47.48
2022-08-16T04:12:52.211Z,47.55
2022-08-16T04:15:16.954Z,47.32
2022-08-16T04:17:58.241Z,47.57
2022-08-16T04:20:31.190Z,47.46
2022-08-16T04:23:06.195Z,47.69
2022-08-16T04:25:36.846Z,47.61
2022-08-16T04:28:29.714Z,47.44
2022-08-16T04:30:55.419Z,47.70
2022-08-16T04:33:27.237Z,47.50
2022-08-16T04:35:58.537Z,47.61
2022-08-16T04:38:30.603Z,47.52
2022-08-16T04:40:59.970Z,47.65
2022-08-16T04:43:29.401Z,47.72
2022-08-16T04:46:01.110Z,47.70
2022-08-16T04:48:36.337Z,47.77
2022-08-16T04:51:12.721Z,47.89
2022-08-16T04:53:51.911Z,47.94
2022-08-16T04:56:21.357Z,47.85
2022-08-16T04:58:52.320Z,47.87
2022-08-16T05:01:59.035Z,48.20
2022-08-16T05:04:19.277Z,47.98
2022-08-16T05:06:49.070Z,48.03
2022-08-16T05:09:42.792Z,47.92
2022-08-16T05:12:22.186Z,48.11
2022-08-16T05:15:02.765Z,48.15
2022-08-16T05:17:33.398Z,47.85
2022-08-16T05:20:38.448Z,48.01
2022-08-16T05:22:57.922Z,47.93
2022-08-16T05:25:47.813Z,47.69
2022-08-16T05:28:18.974Z,48.04
2022-08-16T05:30:57.671Z,47.66
2022-08-16T05:33:30.041Z,47.69
2022-08-16T05:36:21.048Z,47.84
2022-08-16T05:39:13.781Z,47.67
2022-08-16T05:41:45.988Z,47.60
2022-08-16T05:44:23.160Z,47.71
2022-08-16T05:47:00.141Z,47.79
2022-08-16T05:49:38.628Z,47.52
2022-08-16T05:52:20.905Z,47.46
2022-08-16T05:55:01.108Z,47.63
2022-08-16T05:57:35.523Z,47.28
2022-08-16T06:00:11.625Z,47.57
2022-08-16T06:02:45.214Z,47.65
2022-08-16T06:05:36.064Z,47.44
2022-08-16T06:08:06.444Z,47.71
2022-08-16T06:10:40.756Z,47.28
2022-08-16T06:13:32.726Z,47.49
2022-08-16T06:16:02.105Z,47.37
2022-08-16T06:18:31.141Z,47.29
2022-08-16T06:21:00.819Z,47.35
2022-08-16T06:23:32.285Z,47.03
2022-08-16T06:26:07.743Z,47.23
2022-08-16T06:28:42.187Z,47.07
2022-08-16T06:31:24.916Z,47.05
2022-08-16T06:33:55.329Z,46.99
2022-08-16T06:36:26.746Z,47.11
2022-08-16T06:39:18.315Z,46.85
2022-08-16T06:41:57.017Z,46.81
2022-08-16T06:44:43.526Z,47.12
2022-08-16T06:47:53.270Z,47.17
2022-08-16T06:50:28.606Z,46.74
2022-08-16T06:53:06.837Z,46.79
2022-08-16T06:56:02.621Z,46.42
2022-08-16T06:58:41.894Z,46.35
2022-08-16T07:01:18.323Z,46.36
2022-08-16T07:03:55.775Z,46.16
2022-08-16T07:06:27.399Z,46.18
2022-08-16T07:09:09.753Z,46.07
2022-08-16T07:11:46.200Z,45.98
2022-08-16T07:14:27.357Z,45.80
2022-08-16T07:17:00.688Z,45.76
2022-08-16T07:20:03.107Z,45.71
2022-08-16T07:22:38.178Z,45.53
2022-08-16T07:25:16.999Z,45.37
2022-08-16T07:27:47.107Z,45.42
2022-08-16T07:30:38.168Z,45.06
2022-08-16T07:33:10.735Z,45.07
2022-08-16T07:35:49.498Z,44.94
2022-08-16T07:38:20.260Z,44.68
2022-08-16T07:41:10.098Z,44.57
2022-08-16T07:43:47.580Z,44.48
2022-08-16T07:46:38.972Z,44.34
2022-08-16T07:49:12.941Z,44.02
2022-08-16T07:51:43.035Z,43.99
2022-08-16T07:54:20.698Z,43.83
2022-08-16T07:56:54.439Z,43.84
2022-08-16T07:59:26.904Z,43.36
2022-08-16T08:02:20.181Z,43.17
2022-08-16T08:04:54.215Z,43.18
2022-08-16T08:07:27.602Z,43.02
2022-08-16T08:09:58.626Z,43.13
2022-08-16T08:12:31.274Z,42.77
2022-08-16T08:15:09.704Z,42.87
2022-08-16T08:17:42.623Z,42.71
2022-08-16T08:20:26.524Z,42.13
2022-08-16T08:23:01.608Z,41.88
2022-08-16T08:26:00.148Z,41.94
2022-08-16T08:28:31.981Z,41.81
2022-08-16T08:31:05.174Z,41.16
2022-08-16T08:33:39.973Z,41.36
2022-08-16T08:36:22.034Z,40.80
2022-08-16T08:38:53.555Z,40.80
2022-08-16T08:41:28.385Z,40.53
2022-08-16T08:43:58.627Z,40.74
2022-08-16T08:46:27.473Z,40.44
2022-08-16T08:48:59.275Z,40.32
2022-08-16T08:51:31.967Z,40.46
2022-08-16T08:54:09.740Z,40.47
2022-08-16T08:56:45.730Z,40.20
2022-08-16T08:59:34.155Z,40.44
2022-08-16T09:02:19.527Z,40.32
2022-08-16T09:04:53.938Z,39.85
2022-08-16T09:07:25.386Z,39.80
2022-08-16T09:10:06.241Z,39.56
2022-08-16T09:12:40.766Z,39.45
2022-08-16T09:15:24.047Z,39.36
2022-08-16T09:17:55.809Z,39.33
2022-08-16T09:20:30.396Z,38.84
2022-08-16T09:22:59.939Z,38.82
2022-08-16T09:25:33.810Z,38.82
2022-08-16T09:28:08.901Z,38.91
2022-08-16T09:30:43.401Z,38.72
2022-08-16T09:33:19.989Z,38.38
2022-08-16T09:35:53.013Z,38.14
2022-08-16T09:38:31.902Z,38.16
2022-08-16T09:41:14.424Z,37.92
2022-08-16T09:43:59.178Z,37.55
2022-08-16T09:46:45.814Z,37.58
2022-08-16T09:49:20.203Z,37.42
2022-08-16T09:51:53.768Z,37.51
2022-08-16T09:54:23.964Z,37.33
2022-08-16T09:56:54.314Z,37.18
2022-08-16T09:59:25.508Z,36.95
2022-08-16T10:02:00.601Z,36.93
2022-08-16T10:04:54.375Z,36.62
2022-08-16T10:07:44.341Z,36.55
2022-08-16T10:10:19.180Z,36.28
2022-08-16T10:13:16.651Z,36.12
2022-08-16T10:15:54.994Z,36.11
2022-08-16T10:18:41.281Z,36.24
2022-08-16T10:21:18.023Z,35.66
2022-08-16T10:23:48.656Z,35.46
2022-08-16T10:27:18.899Z,35.60
2022-08-16T10:29:20.103Z,35.71
2022-08-16T10:31:53.166Z,35.41
2022-08-16T10:34:31.636Z,35.18
2022-08-16T10:37:02.205Z,34.82
2022-08-16T10:39:40.608Z,34.61
2022-08-16T10:42:13.516Z,34.56
2022-08-16T10:44:54.569Z,34.46
2022-08-16T10:47:23.326Z,34.72
2022-08-16T10:49:51.997Z,34.47
2022-08-16T10:52:21.417Z,34.08
2022-08-16T10:54:59.195Z,34.25
2022-08-16T10:57:32.807Z,34.01
2022-08-16T11:00:01.505Z,34.06
2022-08-16T11:02:59.224Z,34.00
2022-08-16T11:05:17.782Z,33.84
2022-08-16T11:08:05.432Z,33.60
2022-08-16T11:11:05.432Z,33.69
2022-08-16T11:17:01.972Z,33.82
2022-08-16T11:19:12.484Z,33.85
2022-08-16T11:24:41.852Z,33.24
2022-08-16T11:27:23.031Z,33.04
2022-08-16T11:29:56.989Z,32.72
2022-08-16T11:32:32.248Z,32.63
2022-08-16T11:35:16.117Z,32.43
2022-08-16T11:38:47.604Z,32.09
2022-08-16T11:41:14.486Z,31.55
2022-08-16T11:43:42.620Z,31.43
2022-08-16T11:46:45.160Z,31.15
2022-08-16T11:49:09.897Z,30.96
2022-08-16T11:51:44.321Z,31.08
2022-08-16T11:54:21.241Z,31.02
2022-08-16T11:56:56.590Z,30.89
2022-08-16T11:59:29.525Z,30.19
2022-08-16T12:01:59.762Z,29.94
2022-08-16T12:04:29.235Z,30.08
2022-08-16T12:06:58.965Z,29.84
2022-08-16T12:09:30.287Z,29.61
2022-08-16T12:11:58.649Z,30.64
2022-08-16T12:14:35.261Z,29.88
2022-08-16T12:17:06.553Z,29.75
2022-08-16T12:19:38.048Z,29.58
2022-08-16T12:22:19.740Z,29.35
2022-08-16T12:24:51.149Z,29.47
2022-08-16T12:27:25.190Z,29.53
2022-08-16T12:29:54.554Z,29.07
2022-08-16T12:32:39.375Z,29.13
2022-08-16T12:35:17.100Z,29.29
2022-08-16T12:37:49.900Z,28.80
2022-08-16T12:40:32.621Z,28.89
2022-08-16T12:43:05.197Z,28.91
2022-08-16T12:45:41.699Z,29.28
2022-08-16T12:48:34.461Z,29.45
2022-08-16T12:51:19.459Z,29.03
2022-08-16T12:53:53.631Z,29.12
2022-08-16T12:56:26.886Z,29.24
2022-08-16T12:58:57.696Z,29.28
2022-08-16T13:01:33.415Z,29.18
2022-08-16T13:04:12.367Z,29.17
2022-08-16T13:06:50.202Z,29.38
2022-08-16T13:09:26.761Z,29.32
2022-08-16T13:12:16.339Z,28.77
2022-08-16T13:14:45.747Z,29.18
2022-08-16T13:17:23.599Z,29.05
2022-08-16T13:20:11.251Z,28.79
2022-08-16T13:22:52.100Z,28.88
2022-08-16T13:25:25.449Z,28.50
2022-08-16T13:28:14.651Z,28.99
2022-08-16T13:30:52.495Z,28.72
2022-08-16T13:33:30.567Z,28.44
2022-08-16T13:36:00.985Z,28.50
2022-08-16T13:38:36.955Z,28.29
2022-08-16T13:41:11.470Z,28.20
2022-08-16T13:43:41.898Z,28.11
2022-08-16T13:46:11.093Z,28.07
2022-08-16T13:48:44.764Z,28.39
2022-08-16T13:51:19.287Z,28.51
2022-08-16T13:53:58.334Z,28.37
2022-08-16T13:56:37.445Z,28.38
2022-08-16T13:59:20.223Z,28.34
2022-08-16T14:01:55.367Z,28.05
2022-08-16T14:04:31.247Z,28.19
2022-08-16T14:07:04.143Z,28.10
2022-08-16T14:09:36.883Z,28.03
2022-08-16T14:12:19.668Z,28.42
2022-08-16T14:14:56.385Z,28.12
2022-08-16T14:17:27.793Z,27.75
2022-08-16T14:19:59.596Z,27.81
2022-08-16T14:22:39.711Z,27.35
2022-08-16T14:25:20.022Z,27.30
2022-08-16T14:27:52.477Z,26.94
2022-08-16T14:30:23.791Z,27.04
2022-08-16T14:32:53.323Z,27.00
2022-08-16T14:35:29.308Z,27.07
2022-08-16T14:38:05.862Z,27.36
2022-08-16T14:40:35.686Z,26.75
2022-08-16T14:43:05.573Z,26.91
2022-08-16T14:45:36.856Z,26.46
2022-08-16T14:48:05.854Z,26.50
2022-08-16T14:50:34.190Z,26.22
2022-08-16T14:53:09.468Z,26.24
2022-08-16T14:55:41.121Z,26.15
2022-08-16T14:58:19.351Z,26.58
2022-08-16T15:00:50.283Z,26.28
2022-08-16T15:03:22.407Z,26.05
2022-08-16T15:05:54.013Z,26.30
2022-08-16T15:08:37.176Z,26.05
2022-08-16T15:11:09.610Z,26.11
2022-08-16T15:13:37.549Z,26.22
2022-08-16T15:16:07.660Z,25.92
2022-08-16T15:18:36.517Z,26.19
2022-08-16T15:21:08.419Z,25.50
2022-08-16T15:23:40.511Z,25.45
2022-08-16T15:26:11.107Z,25.78
2022-08-16T15:28:50.038Z,25.40
2022-08-16T15:31:19.516Z,25.44
2022-08-16T15:33:56.617Z,25.65
2022-08-16T15:36:26.904Z,25.90
2022-08-16T15:39:06.833Z,25.92
2022-08-16T15:41:47.031Z,25.50
2022-08-16T15:44:23.767Z,25.32
2022-08-16T15:46:58.740Z,25.45
2022-08-16T15:49:36.969Z,25.41
2022-08-16T15:52:12.768Z,25.29
2022-08-16T15:54:52.493Z,25.49
2022-08-16T15:57:36.996Z,25.48
2022-08-16T16:00:14.912Z,25.43
2022-08-16T16:02:45.192Z,25.37
2022-08-16T16:05:14.209Z,25.62
2022-08-16T16:07:56.950Z,25.80
2022-08-16T16:10:31.390Z,25.89
2022-08-16T16:13:01.858Z,25.64
2022-08-16T16:15:39.227Z,25.52
2022-08-16T16:18:09.842Z,25.63
2022-08-16T16:20:47.492Z,25.29
2022-08-16T16:23:24.709Z,25.62
2022-08-16T16:25:55.212Z,25.17
2022-08-16T16:29:06.347Z,25.42
2022-08-16T16:31:19.014Z,25.60
2022-08-16T16:33:52.695Z,25.46
2022-08-16T16:36:28.730Z,25.72
2022-08-16T16:38:58.443Z,25.51
2022-08-16T16:41:30.405Z,25.23
2022-08-16T16:44:01.203Z,25.67
2022-08-16T16:46:43.249Z,25.79
2022-08-16T16:49:14.646Z,25.67
2022-08-16T16:51:44.917Z,25.45
2022-08-16T16:54:27.753Z,26.04
2022-08-16T16:56:58.476Z,25.73
2022-08-16T16:59:28.065Z,26.41
2022-08-16T17:02:39.303Z,26.39
2022-08-16T17:04:49.186Z,26.23
2022-08-16T17:07:17.737Z,26.23
2022-08-16T17:09:53.824Z,26.29
2022-08-16T17:12:25.172Z,26.05
2022-08-16T17:15:10.681Z,26.30
2022-08-16T17:17:59.843Z,26.27
2022-08-16T17:20:27.613Z,26.23
2022-08-16T17:22:57.074Z,26.52
2022-08-16T17:25:27.438Z,26.28
2022-08-16T17:29:00.081Z,26.45
2022-08-16T17:30:59.560Z,26.79
2022-08-16T17:33:37.318Z,26.92
2022-08-16T17:36:52.686Z,27.05
2022-08-16T17:39:25.259Z,27.31
2022-08-16T17:41:54.167Z,28.11
2022-08-16T17:44:24.644Z,28.21
2022-08-16T17:46:53.541Z,28.38
2022-08-16T17:49:24.261Z,28.47
2022-08-16T17:51:52.871Z,28.69
2022-08-16T17:54:30.645Z,28.31
2022-08-16T17:57:00.844Z,28.40
2022-08-16T17:59:30.534Z,28.61
2022-08-16T18:01:59.549Z,28.47
2022-08-16T18:04:48.358Z,29.00
2022-08-16T18:07:16.382Z,29.76
2022-08-16T18:09:44.501Z,30.19
2022-08-16T18:12:41.622Z,29.98
2022-08-16T18:15:11.506Z,30.17
2022-08-16T18:17:40.337Z,30.32
2022-08-16T18:20:30.534Z,30.21
2022-08-16T18:23:09.032Z,30.25
2022-08-16T18:25:47.346Z,30.42
2022-08-16T18:28:16.490Z,30.50
2022-08-16T18:30:50.932Z,30.84
2022-08-16T18:33:22.417Z,30.44
2022-08-16T18:35:57.435Z,30.87
2022-08-16T18:38:26.799Z,31.22
2022-08-16T18:40:55.745Z,31.09
2022-08-16T18:44:23.247Z,31.61
2022-08-16T18:46:11.961Z,31.97
2022-08-16T18:48:40.220Z,32.40
2022-08-16T18:51:13.041Z,32.66
2022-08-16T18:53:44.439Z,32.28
2022-08-16T18:56:12.833Z,32.48
2022-08-16T18:58:42.001Z,32.32
2022-08-16T19:01:09.913Z,32.72
2022-08-16T19:03:38.876Z,32.83
2022-08-16T19:06:13.535Z,32.65
2022-08-16T19:08:44.609Z,32.93
2022-08-16T19:11:23.501Z,33.28
2022-08-16T19:13:52.582Z,32.95
2022-08-16T19:16:23.162Z,33.49
2022-08-16T19:18:54.289Z,33.44
2022-08-16T19:21:22.464Z,33.12
2022-08-16T19:23:50.824Z,33.78
2022-08-16T19:26:24.544Z,33.91
2022-08-16T19:28:59.089Z,34.35
2022-08-16T19:31:34.255Z,34.30
2022-08-16T19:34:04.489Z,33.99
2022-08-16T19:36:37.975Z,34.22
2022-08-16T19:39:15.207Z,34.05
2022-08-16T19:41:50.575Z,34.35
2022-08-16T19:44:23.619Z,34.30
2022-08-16T19:46:52.273Z,34.52
2022-08-16T19:49:20.630Z,34.20
2022-08-16T19:51:49.389Z,34.57
2022-08-16T19:54:17.821Z,34.75
2022-08-16T19:56:45.706Z,34.91
2022-08-16T19:59:39.720Z,35.07
2022-08-16T20:02:03.041Z,35.27
2022-08-16T20:04:31.684Z,35.35
2022-08-16T20:07:01.890Z,35.44
2022-08-16T20:09:30.596Z,35.32
2022-08-16T20:11:59.252Z,35.55
2022-08-16T20:14:27.586Z,35.52
2022-08-16T20:16:58.573Z,35.46
2022-08-16T20:19:36.091Z,35.80
2022-08-16T20:22:52.547Z,36.03
2022-08-16T20:25:28.718Z,36.23
2022-08-16T20:27:58.060Z,36.12
2022-08-16T20:30:27.335Z,36.35
2022-08-16T20:32:55.548Z,36.40
2022-08-16T20:35:28.286Z,36.90
2022-08-16T20:37:56.806Z,36.99
2022-08-16T20:40:34.639Z,37.13
2022-08-16T20:43:14.533Z,37.35
2022-08-16T20:45:46.686Z,37.15
2022-08-16T20:48:16.050Z,37.57
2022-08-16T20:50:45.261Z,37.38
2022-08-16T20:53:13.443Z,37.60
2022-08-16T20:55:41.807Z,37.62
2022-08-16T20:58:09.972Z,37.70
2022-08-16T21:00:38.470Z,37.89
2022-08-16T21:03:10.754Z,37.66
2022-08-16T21:05:39.259Z,37.98
2022-08-16T21:08:50.431Z,37.70
2022-08-16T21:10:56.870Z,37.75
2022-08-16T21:13:25.761Z,37.99
2022-08-16T21:15:54.617Z,38.27
2022-08-16T21:18:23.758Z,38.05
2022-08-16T21:20:52.524Z,38.33
2022-08-16T21:23:21.477Z,38.40
2022-08-16T21:25:58.955Z,38.38
2022-08-16T21:28:38.796Z,38.57
2022-08-16T21:31:13.085Z,38.57
2022-08-16T21:33:43.264Z,38.51
2022-08-16T21:36:13.183Z,38.69
2022-08-16T21:38:41.547Z,38.49
2022-08-16T21:41:13.372Z,38.87
2022-08-16T21:43:41.933Z,38.90
2022-08-16T21:46:10.752Z,39.02
2022-08-16T21:48:43.657Z,39.19
2022-08-16T21:51:16.348Z,39.17
2022-08-16T21:53:44.598Z,39.37
2022-08-16T21:56:18.640Z,39.59
2022-08-16T21:58:52.804Z,39.81
2022-08-16T22:01:23.694Z,39.70
2022-08-16T22:04:01.479Z,39.76
2022-08-16T22:06:42.833Z,39.76
2022-08-16T22:09:15.333Z,40.02
2022-08-16T22:11:44.873Z,40.01
2022-08-16T22:14:13.535Z,40.12
2022-08-16T22:16:42.226Z,40.59
2022-08-16T22:19:11.547Z,40.23
2022-08-16T22:21:39.466Z,40.41
2022-08-16T22:24:08.238Z,40.54
2022-08-16T22:26:43.312Z,40.71
2022-08-16T22:29:15.223Z,40.64
2022-08-16T22:31:44.287Z,40.72
2022-08-16T22:34:14.441Z,40.70
2022-08-16T22:36:43.954Z,40.98
2022-08-16T22:39:14.145Z,40.99
2022-08-16T22:41:45.706Z,41.05
2022-08-16T22:44:14.626Z,41.35
2022-08-16T22:46:43.222Z,41.43
2022-08-16T22:49:13.005Z,41.45
2022-08-16T22:51:44.236Z,41.54
2022-08-16T22:54:34.207Z,41.83
2022-08-16T22:57:02.508Z,41.78
2022-08-16T22:59:32.041Z,42.21
2022-08-16T23:02:04.551Z,41.90
2022-08-16T23:04:34.099Z,42.12
2022-08-16T23:07:05.426Z,41.85
2022-08-16T23:09:33.735Z,42.42
2022-08-16T23:12:06.131Z,42.18
2022-08-16T23:14:34.436Z,42.32
2022-08-16T23:17:02.542Z,42.48
2022-08-16T23:19:30.861Z,42.49
2022-08-16T23:22:00.721Z,42.65
2022-08-16T23:24:28.928Z,42.80
2022-08-16T23:26:57.265Z,42.87
2022-08-16T23:29:26.547Z,43.05
2022-08-16T23:32:08.433Z,42.87
2022-08-16T23:34:36.711Z,43.01
2022-08-16T23:37:04.674Z,43.00
2022-08-16T23:39:33.112Z,42.81
2022-08-16T23:42:12.084Z,42.40
2022-08-16T23:44:56.519Z,42.71
2022-08-16T23:47:27.653Z,42.90
2022-08-16T23:50:02.540Z,42.83
2022-08-16T23:52:53.917Z,42.78
2022-08-16T23:55:20.491Z,43.12
2022-08-16T23:57:50.236Z,43.13
